Terminal Aerodrome Forecast
Issued by NWS

Home | Current Version | Previous Version | Text Only | Print | Product List | Glossary On
Versions: 1 2 3 4 5 6 7 8 9 10 11 12 13 14 15 16 17 18 19 20 21 22 23 24 25 26 27 28 29 30 31 32
000
FTUS43 KDMX 210541 AAA
TAFMCW
TAF AMD
KMCW 210541Z 2106/2206 11007KT 1/4SM FG VCSH OVC002
      TEMPO 2106/2108 1/2SM FG
     FM210900 09007KT 1/4SM -RA FG OVC001
     FM211300 15005KT 1/4SM FG OVC002
     FM211900 20007KT 1SM BR OVC010
     FM220200 25005KT 3SM BR BKN008=

USA.gov is the U.S. government's official web portal to all federal, state and local government web resources and services.